sensor_id;sensor_type;location;lat;lon;timestamp;P1;durP1;ratioP1;P2;durP2;ratioP2
9737;SDS011;4908;47.446;13.900;2023-08-30T00:01:12;0.87;;;0.40;;
9737;SDS011;4908;47.446;13.900;2023-08-30T00:03:40;0.20;;;0.20;;
9737;SDS011;4908;47.446;13.900;2023-08-30T00:06:07;0.30;;;0.30;;
9737;SDS011;4908;47.446;13.900;2023-08-30T00:08:34;0.93;;;0.10;;
9737;SDS011;4908;47.446;13.900;2023-08-30T00:11:01;0.10;;;0.10;;
9737;SDS011;4908;47.446;13.900;2023-08-30T00:13:29;0.50;;;0.30;;
9737;SDS011;4908;47.446;13.900;2023-08-30T00:15:58;0.30;;;0.30;;
9737;SDS011;4908;47.446;13.900;2023-08-30T00:18:28;0.23;;;0.23;;
9737;SDS011;4908;47.446;13.900;2023-08-30T00:20:56;1.80;;;0.40;;
9737;SDS011;4908;47.446;13.900;2023-08-30T00:23:23;0.53;;;0.30;;
9737;SDS011;4908;47.446;13.900;2023-08-30T00:25:50;0.20;;;0.20;;
9737;SDS011;4908;47.446;13.900;2023-08-30T00:28:17;0.63;;;0.20;;
9737;SDS011;4908;47.446;13.900;2023-08-30T00:30:45;0.20;;;0.20;;
9737;SDS011;4908;47.446;13.900;2023-08-30T00:33:12;0.23;;;0.23;;
9737;SDS011;4908;47.446;13.900;2023-08-30T00:35:41;0.30;;;0.30;;
9737;SDS011;4908;47.446;13.900;2023-08-30T00:38:08;0.10;;;0.10;;
9737;SDS011;4908;47.446;13.900;2023-08-30T00:40:38;1.70;;;0.30;;
9737;SDS011;4908;47.446;13.900;2023-08-30T00:43:06;1.07;;;0.30;;
9737;SDS011;4908;47.446;13.900;2023-08-30T00:45:33;0.43;;;0.37;;
9737;SDS011;4908;47.446;13.900;2023-08-30T00:48:04;0.30;;;0.27;;
9737;SDS011;4908;47.446;13.900;2023-08-30T00:50:32;0.33;;;0.33;;
9737;SDS011;4908;47.446;13.900;2023-08-30T00:53:02;0.83;;;0.30;;
9737;SDS011;4908;47.446;13.900;2023-08-30T00:55:31;1.50;;;0.40;;
9737;SDS011;4908;47.446;13.900;2023-08-30T00:57:59;0.73;;;0.43;;
9737;SDS011;4908;47.446;13.900;2023-08-30T01:00:27;1.03;;;0.43;;
9737;SDS011;4908;47.446;13.900;2023-08-30T01:02:54;0.40;;;0.40;;
9737;SDS011;4908;47.446;13.900;2023-08-30T01:05:22;0.20;;;0.10;;
9737;SDS011;4908;47.446;13.900;2023-08-30T01:07:49;0.20;;;0.20;;
9737;SDS011;4908;47.446;13.900;2023-08-30T01:10:18;0.20;;;0.20;;
9737;SDS011;4908;47.446;13.900;2023-08-30T01:12:53;0.37;;;0.37;;
9737;SDS011;4908;47.446;13.900;2023-08-30T01:15:27;0.40;;;0.27;;
9737;SDS011;4908;47.446;13.900;2023-08-30T01:17:55;0.10;;;0.10;;
9737;SDS011;4908;47.446;13.900;2023-08-30T01:20:24;0.33;;;0.30;;
9737;SDS011;4908;47.446;13.900;2023-08-30T01:22:55;0.67;;;0.30;;
9737;SDS011;4908;47.446;13.900;2023-08-30T01:25:45;0.70;;;0.40;;
9737;SDS011;4908;47.446;13.900;2023-08-30T01:28:22;0.20;;;0.20;;
9737;SDS011;4908;47.446;13.900;2023-08-30T01:30:51;0.40;;;0.20;;
9737;SDS011;4908;47.446;13.900;2023-08-30T01:33:20;0.63;;;0.30;;
9737;SDS011;4908;47.446;13.900;2023-08-30T01:35:49;0.20;;;0.20;;
9737;SDS011;4908;47.446;13.900;2023-08-30T01:38:17;0.20;;;0.20;;
9737;SDS011;4908;47.446;13.900;2023-08-30T01:40:44;0.27;;;0.27;;
9737;SDS011;4908;47.446;13.900;2023-08-30T01:43:14;0.93;;;0.20;;
9737;SDS011;4908;47.446;13.900;2023-08-30T01:45:44;0.30;;;0.30;;
9737;SDS011;4908;47.446;13.900;2023-08-30T01:48:12;0.20;;;0.20;;
9737;SDS011;4908;47.446;13.900;2023-08-30T01:50:41;0.30;;;0.30;;
9737;SDS011;4908;47.446;13.900;2023-08-30T01:53:10;0.20;;;0.20;;
9737;SDS011;4908;47.446;13.900;2023-08-30T01:55:38;0.20;;;0.20;;
9737;SDS011;4908;47.446;13.900;2023-08-30T01:58:06;0.30;;;0.30;;
9737;SDS011;4908;47.446;13.900;2023-08-30T02:00:34;0.30;;;0.30;;
9737;SDS011;4908;47.446;13.900;2023-08-30T02:03:08;0.37;;;0.37;;
9737;SDS011;4908;47.446;13.900;2023-08-30T02:05:36;1.57;;;0.20;;
9737;SDS011;4908;47.446;13.900;2023-08-30T02:08:11;1.17;;;0.33;;
9737;SDS011;4908;47.446;13.900;2023-08-30T02:10:44;0.20;;;0.20;;
9737;SDS011;4908;47.446;13.900;2023-08-30T02:13:25;0.40;;;0.30;;
9737;SDS011;4908;47.446;13.900;2023-08-30T02:15:54;0.23;;;0.23;;
9737;SDS011;4908;47.446;13.900;2023-08-30T02:18:25;0.30;;;0.30;;
9737;SDS011;4908;47.446;13.900;2023-08-30T02:20:53;0.20;;;0.20;;
9737;SDS011;4908;47.446;13.900;2023-08-30T02:23:22;0.20;;;0.20;;
9737;SDS011;4908;47.446;13.900;2023-08-30T02:25:50;0.20;;;0.20;;
9737;SDS011;4908;47.446;13.900;2023-08-30T02:28:17;0.20;;;0.20;;
9737;SDS011;4908;47.446;13.900;2023-08-30T02:30:45;0.77;;;0.23;;
9737;SDS011;4908;47.446;13.900;2023-08-30T02:33:12;0.47;;;0.33;;
9737;SDS011;4908;47.446;13.900;2023-08-30T02:35:41;0.20;;;0.20;;
9737;SDS011;4908;47.446;13.900;2023-08-30T02:38:08;1.80;;;0.27;;
9737;SDS011;4908;47.446;13.900;2023-08-30T02:40:35;0.37;;;0.30;;
9737;SDS011;4908;47.446;13.900;2023-08-30T02:43:02;0.60;;;0.23;;
9737;SDS011;4908;47.446;13.900;2023-08-30T02:45:29;0.30;;;0.30;;
9737;SDS011;4908;47.446;13.900;2023-08-30T02:47:57;0.10;;;0.10;;
9737;SDS011;4908;47.446;13.900;2023-08-30T02:50:24;0.20;;;0.20;;
9737;SDS011;4908;47.446;13.900;2023-08-30T02:52:52;0.60;;;0.40;;
9737;SDS011;4908;47.446;13.900;2023-08-30T02:55:20;0.30;;;0.30;;
9737;SDS011;4908;47.446;13.900;2023-08-30T02:57:47;0.73;;;0.30;;
9737;SDS011;4908;47.446;13.900;2023-08-30T03:00:15;0.30;;;0.30;;
9737;SDS011;4908;47.446;13.900;2023-08-30T03:02:42;0.20;;;0.20;;
9737;SDS011;4908;47.446;13.900;2023-08-30T03:05:09;0.30;;;0.20;;
9737;SDS011;4908;47.446;13.900;2023-08-30T03:07:37;0.30;;;0.30;;
9737;SDS011;4908;47.446;13.900;2023-08-30T03:10:06;0.20;;;0.20;;
9737;SDS011;4908;47.446;13.900;2023-08-30T03:12:34;0.27;;;0.27;;
9737;SDS011;4908;47.446;13.900;2023-08-30T03:15:01;0.20;;;0.20;;
9737;SDS011;4908;47.446;13.900;2023-08-30T03:17:29;0.20;;;0.20;;
9737;SDS011;4908;47.446;13.900;2023-08-30T03:19:56;0.63;;;0.30;;
9737;SDS011;4908;47.446;13.900;2023-08-30T03:22:23;0.33;;;0.33;;
9737;SDS011;4908;47.446;13.900;2023-08-30T03:24:51;0.20;;;0.20;;
9737;SDS011;4908;47.446;13.900;2023-08-30T03:27:19;0.30;;;0.30;;
9737;SDS011;4908;47.446;13.900;2023-08-30T03:29:46;1.20;;;0.37;;
9737;SDS011;4908;47.446;13.900;2023-08-30T03:32:16;0.23;;;0.23;;
9737;SDS011;4908;47.446;13.900;2023-08-30T03:34:44;0.30;;;0.30;;
9737;SDS011;4908;47.446;13.900;2023-08-30T03:37:11;0.20;;;0.20;;
9737;SDS011;4908;47.446;13.900;2023-08-30T03:39:39;1.90;;;0.40;;
9737;SDS011;4908;47.446;13.900;2023-08-30T03:42:06;0.67;;;0.40;;
9737;SDS011;4908;47.446;13.900;2023-08-30T03:44:35;0.30;;;0.30;;
9737;SDS011;4908;47.446;13.900;2023-08-30T03:47:04;0.30;;;0.30;;
9737;SDS011;4908;47.446;13.900;2023-08-30T03:49:31;0.37;;;0.37;;
9737;SDS011;4908;47.446;13.900;2023-08-30T03:51:59;0.20;;;0.20;;
9737;SDS011;4908;47.446;13.900;2023-08-30T03:54:26;0.50;;;0.50;;
9737;SDS011;4908;47.446;13.900;2023-08-30T03:56:53;0.87;;;0.50;;
9737;SDS011;4908;47.446;13.900;2023-08-30T03:59:20;0.60;;;0.47;;
9737;SDS011;4908;47.446;13.900;2023-08-30T04:01:50;1.87;;;0.60;;
9737;SDS011;4908;47.446;13.900;2023-08-30T04:04:17;0.60;;;0.60;;
9737;SDS011;4908;47.446;13.900;2023-08-30T04:06:44;0.63;;;0.63;;
9737;SDS011;4908;47.446;13.900;2023-08-30T04:09:12;0.40;;;0.40;;
9737;SDS011;4908;47.446;13.900;2023-08-30T04:11:39;0.40;;;0.33;;
9737;SDS011;4908;47.446;13.900;2023-08-30T04:14:07;0.40;;;0.40;;
9737;SDS011;4908;47.446;13.900;2023-08-30T04:16:34;0.40;;;0.40;;
9737;SDS011;4908;47.446;13.900;2023-08-30T04:19:03;0.73;;;0.40;;
9737;SDS011;4908;47.446;13.900;2023-08-30T04:21:30;0.40;;;0.40;;
9737;SDS011;4908;47.446;13.900;2023-08-30T04:23:57;0.30;;;0.30;;
9737;SDS011;4908;47.446;13.900;2023-08-30T04:26:24;1.10;;;0.40;;
9737;SDS011;4908;47.446;13.900;2023-08-30T04:28:51;0.63;;;0.30;;
9737;SDS011;4908;47.446;13.900;2023-08-30T04:31:19;0.40;;;0.40;;
9737;SDS011;4908;47.446;13.900;2023-08-30T04:33:46;0.30;;;0.30;;
9737;SDS011;4908;47.446;13.900;2023-08-30T04:36:14;0.50;;;0.50;;
9737;SDS011;4908;47.446;13.900;2023-08-30T04:38:41;0.30;;;0.30;;
9737;SDS011;4908;47.446;13.900;2023-08-30T04:41:09;0.50;;;0.50;;
9737;SDS011;4908;47.446;13.900;2023-08-30T04:43:36;0.80;;;0.80;;
9737;SDS011;4908;47.446;13.900;2023-08-30T04:46:03;0.70;;;0.70;;
9737;SDS011;4908;47.446;13.900;2023-08-30T04:48:31;1.33;;;0.63;;
9737;SDS011;4908;47.446;13.900;2023-08-30T04:50:59;0.40;;;0.40;;
9737;SDS011;4908;47.446;13.900;2023-08-30T04:53:29;0.30;;;0.30;;
9737;SDS011;4908;47.446;13.900;2023-08-30T04:55:57;0.43;;;0.43;;
9737;SDS011;4908;47.446;13.900;2023-08-30T04:58:24;1.00;;;0.40;;
9737;SDS011;4908;47.446;13.900;2023-08-30T05:00:51;0.30;;;0.30;;
9737;SDS011;4908;47.446;13.900;2023-08-30T05:03:18;0.30;;;0.30;;
9737;SDS011;4908;47.446;13.900;2023-08-30T05:05:45;1.07;;;0.40;;
9737;SDS011;4908;47.446;13.900;2023-08-30T05:08:13;0.20;;;0.20;;
9737;SDS011;4908;47.446;13.900;2023-08-30T05:10:41;0.30;;;0.30;;
9737;SDS011;4908;47.446;13.900;2023-08-30T05:13:14;0.23;;;0.23;;
9737;SDS011;4908;47.446;13.900;2023-08-30T05:15:42;0.20;;;0.20;;
9737;SDS011;4908;47.446;13.900;2023-08-30T05:18:09;0.30;;;0.30;;
9737;SDS011;4908;47.446;13.900;2023-08-30T05:20:36;0.37;;;0.37;;
9737;SDS011;4908;47.446;13.900;2023-08-30T05:23:04;0.40;;;0.40;;
9737;SDS011;4908;47.446;13.900;2023-08-30T05:25:31;0.37;;;0.37;;
9737;SDS011;4908;47.446;13.900;2023-08-30T05:27:59;0.30;;;0.30;;
9737;SDS011;4908;47.446;13.900;2023-08-30T05:30:26;0.40;;;0.40;;
9737;SDS011;4908;47.446;13.900;2023-08-30T05:32:53;0.50;;;0.50;;
9737;SDS011;4908;47.446;13.900;2023-08-30T05:35:21;0.40;;;0.40;;
9737;SDS011;4908;47.446;13.900;2023-08-30T05:37:48;0.77;;;0.77;;
9737;SDS011;4908;47.446;13.900;2023-08-30T05:40:16;1.13;;;0.40;;
9737;SDS011;4908;47.446;13.900;2023-08-30T05:42:43;1.03;;;0.83;;
9737;SDS011;4908;47.446;13.900;2023-08-30T05:45:12;0.50;;;0.50;;
9737;SDS011;4908;47.446;13.900;2023-08-30T05:47:40;1.07;;;0.47;;
9737;SDS011;4908;47.446;13.900;2023-08-30T05:50:07;0.60;;;0.60;;
9737;SDS011;4908;47.446;13.900;2023-08-30T05:52:35;0.50;;;0.50;;
9737;SDS011;4908;47.446;13.900;2023-08-30T05:55:06;0.67;;;0.50;;
9737;SDS011;4908;47.446;13.900;2023-08-30T05:57:34;0.50;;;0.50;;
9737;SDS011;4908;47.446;13.900;2023-08-30T06:00:02;0.50;;;0.50;;
9737;SDS011;4908;47.446;13.900;2023-08-30T06:02:31;0.47;;;0.47;;
9737;SDS011;4908;47.446;13.900;2023-08-30T06:04:59;0.30;;;0.30;;
9737;SDS011;4908;47.446;13.900;2023-08-30T06:07:26;0.60;;;0.57;;
9737;SDS011;4908;47.446;13.900;2023-08-30T06:09:53;0.63;;;0.60;;
9737;SDS011;4908;47.446;13.900;2023-08-30T06:12:20;1.07;;;0.60;;
9737;SDS011;4908;47.446;13.900;2023-08-30T06:14:47;0.53;;;0.53;;
9737;SDS011;4908;47.446;13.900;2023-08-30T06:17:17;0.67;;;0.50;;
9737;SDS011;4908;47.446;13.900;2023-08-30T06:19:46;0.40;;;0.40;;
9737;SDS011;4908;47.446;13.900;2023-08-30T06:22:14;0.40;;;0.40;;
9737;SDS011;4908;47.446;13.900;2023-08-30T06:24:41;1.80;;;0.60;;
9737;SDS011;4908;47.446;13.900;2023-08-30T06:27:08;0.67;;;0.53;;
9737;SDS011;4908;47.446;13.900;2023-08-30T06:29:36;0.87;;;0.40;;
9737;SDS011;4908;47.446;13.900;2023-08-30T06:32:03;0.67;;;0.67;;
9737;SDS011;4908;47.446;13.900;2023-08-30T06:34:31;1.07;;;0.33;;
9737;SDS011;4908;47.446;13.900;2023-08-30T06:36:59;0.40;;;0.40;;
9737;SDS011;4908;47.446;13.900;2023-08-30T06:39:32;1.10;;;0.40;;
9737;SDS011;4908;47.446;13.900;2023-08-30T06:42:00;0.70;;;0.70;;
9737;SDS011;4908;47.446;13.900;2023-08-30T06:44:27;0.67;;;0.67;;
9737;SDS011;4908;47.446;13.900;2023-08-30T06:46:55;0.77;;;0.43;;
9737;SDS011;4908;47.446;13.900;2023-08-30T06:49:22;0.50;;;0.50;;
9737;SDS011;4908;47.446;13.900;2023-08-30T06:51:49;0.40;;;0.40;;
9737;SDS011;4908;47.446;13.900;2023-08-30T06:54:18;1.40;;;1.40;;
9737;SDS011;4908;47.446;13.900;2023-08-30T06:56:56;1.20;;;0.77;;
9737;SDS011;4908;47.446;13.900;2023-08-30T06:59:24;0.63;;;0.63;;
9737;SDS011;4908;47.446;13.900;2023-08-30T07:01:51;1.37;;;1.03;;
9737;SDS011;4908;47.446;13.900;2023-08-30T07:04:19;3.50;;;2.70;;
9737;SDS011;4908;47.446;13.900;2023-08-30T07:06:46;2.97;;;2.17;;
9737;SDS011;4908;47.446;13.900;2023-08-30T07:09:13;4.10;;;3.80;;
9737;SDS011;4908;47.446;13.900;2023-08-30T07:11:43;2.50;;;2.40;;
9737;SDS011;4908;47.446;13.900;2023-08-30T07:14:12;2.10;;;2.00;;
9737;SDS011;4908;47.446;13.900;2023-08-30T07:16:39;0.73;;;0.73;;
9737;SDS011;4908;47.446;13.900;2023-08-30T07:19:07;0.70;;;0.70;;
9737;SDS011;4908;47.446;13.900;2023-08-30T07:21:35;0.73;;;0.60;;
9737;SDS011;4908;47.446;13.900;2023-08-30T07:24:04;0.40;;;0.40;;
9737;SDS011;4908;47.446;13.900;2023-08-30T07:26:32;1.00;;;1.00;;
9737;SDS011;4908;47.446;13.900;2023-08-30T07:29:01;0.87;;;0.70;;
9737;SDS011;4908;47.446;13.900;2023-08-30T07:31:30;0.70;;;0.70;;
9737;SDS011;4908;47.446;13.900;2023-08-30T07:33:57;0.40;;;0.40;;
9737;SDS011;4908;47.446;13.900;2023-08-30T07:36:25;2.23;;;0.60;;
9737;SDS011;4908;47.446;13.900;2023-08-30T07:38:53;1.57;;;0.50;;
9737;SDS011;4908;47.446;13.900;2023-08-30T07:41:20;0.70;;;0.43;;
9737;SDS011;4908;47.446;13.900;2023-08-30T07:43:48;1.43;;;0.50;;
9737;SDS011;4908;47.446;13.900;2023-08-30T07:46:16;0.40;;;0.40;;
9737;SDS011;4908;47.446;13.900;2023-08-30T07:48:43;0.80;;;0.40;;
9737;SDS011;4908;47.446;13.900;2023-08-30T07:51:11;1.37;;;0.40;;
9737;SDS011;4908;47.446;13.900;2023-08-30T07:53:38;0.40;;;0.40;;
9737;SDS011;4908;47.446;13.900;2023-08-30T07:56:05;0.40;;;0.40;;
9737;SDS011;4908;47.446;13.900;2023-08-30T07:58:32;0.50;;;0.50;;
9737;SDS011;4908;47.446;13.900;2023-08-30T08:01:00;0.20;;;0.20;;
9737;SDS011;4908;47.446;13.900;2023-08-30T08:03:28;0.40;;;0.30;;
9737;SDS011;4908;47.446;13.900;2023-08-30T08:05:57;0.67;;;0.20;;
9737;SDS011;4908;47.446;13.900;2023-08-30T08:08:25;2.60;;;0.50;;
9737;SDS011;4908;47.446;13.900;2023-08-30T08:10:52;0.30;;;0.30;;
9737;SDS011;4908;47.446;13.900;2023-08-30T08:13:19;0.30;;;0.30;;
9737;SDS011;4908;47.446;13.900;2023-08-30T08:15:47;0.30;;;0.30;;
9737;SDS011;4908;47.446;13.900;2023-08-30T08:18:14;1.70;;;0.20;;
9737;SDS011;4908;47.446;13.900;2023-08-30T08:20:42;0.83;;;0.30;;
9737;SDS011;4908;47.446;13.900;2023-08-30T08:23:10;0.40;;;0.40;;
9737;SDS011;4908;47.446;13.900;2023-08-30T08:25:37;0.47;;;0.40;;
9737;SDS011;4908;47.446;13.900;2023-08-30T08:28:04;1.03;;;0.50;;
9737;SDS011;4908;47.446;13.900;2023-08-30T08:30:31;1.47;;;0.30;;
9737;SDS011;4908;47.446;13.900;2023-08-30T08:32:58;0.40;;;0.40;;
9737;SDS011;4908;47.446;13.900;2023-08-30T08:35:26;0.30;;;0.30;;
9737;SDS011;4908;47.446;13.900;2023-08-30T08:37:54;0.43;;;0.20;;
9737;SDS011;4908;47.446;13.900;2023-08-30T08:40:22;1.77;;;0.53;;
9737;SDS011;4908;47.446;13.900;2023-08-30T08:42:49;0.47;;;0.30;;
9737;SDS011;4908;47.446;13.900;2023-08-30T08:45:17;1.40;;;0.50;;
9737;SDS011;4908;47.446;13.900;2023-08-30T08:47:45;0.30;;;0.30;;
9737;SDS011;4908;47.446;13.900;2023-08-30T08:50:14;0.27;;;0.27;;
9737;SDS011;4908;47.446;13.900;2023-08-30T08:52:42;0.20;;;0.20;;
9737;SDS011;4908;47.446;13.900;2023-08-30T08:55:11;1.17;;;0.33;;
9737;SDS011;4908;47.446;13.900;2023-08-30T08:57:38;0.20;;;0.20;;
9737;SDS011;4908;47.446;13.900;2023-08-30T09:00:06;0.20;;;0.20;;
9737;SDS011;4908;47.446;13.900;2023-08-30T09:02:34;0.27;;;0.27;;
9737;SDS011;4908;47.446;13.900;2023-08-30T09:05:02;0.33;;;0.20;;
9737;SDS011;4908;47.446;13.900;2023-08-30T09:07:30;0.80;;;0.30;;
9737;SDS011;4908;47.446;13.900;2023-08-30T09:09:58;0.27;;;0.27;;
9737;SDS011;4908;47.446;13.900;2023-08-30T09:12:27;0.20;;;0.20;;
9737;SDS011;4908;47.446;13.900;2023-08-30T09:14:58;1.03;;;0.23;;
9737;SDS011;4908;47.446;13.900;2023-08-30T09:17:34;0.30;;;0.30;;
9737;SDS011;4908;47.446;13.900;2023-08-30T09:20:06;0.70;;;0.20;;
9737;SDS011;4908;47.446;13.900;2023-08-30T09:22:36;0.30;;;0.30;;
9737;SDS011;4908;47.446;13.900;2023-08-30T09:25:05;0.20;;;0.20;;
9737;SDS011;4908;47.446;13.900;2023-08-30T09:27:34;0.20;;;0.20;;
9737;SDS011;4908;47.446;13.900;2023-08-30T09:30:04;0.17;;;0.17;;
9737;SDS011;4908;47.446;13.900;2023-08-30T09:32:38;0.47;;;0.47;;
9737;SDS011;4908;47.446;13.900;2023-08-30T09:35:08;0.10;;;0.10;;
9737;SDS011;4908;47.446;13.900;2023-08-30T09:37:36;0.20;;;0.20;;
9737;SDS011;4908;47.446;13.900;2023-08-30T09:40:03;0.93;;;0.27;;
9737;SDS011;4908;47.446;13.900;2023-08-30T09:42:31;0.23;;;0.23;;
9737;SDS011;4908;47.446;13.900;2023-08-30T09:45:00;0.30;;;0.30;;
9737;SDS011;4908;47.446;13.900;2023-08-30T09:47:28;0.23;;;0.23;;
9737;SDS011;4908;47.446;13.900;2023-08-30T09:49:56;0.30;;;0.30;;
9737;SDS011;4908;47.446;13.900;2023-08-30T09:52:26;0.40;;;0.40;;
9737;SDS011;4908;47.446;13.900;2023-08-30T09:54:56;0.57;;;0.50;;
9737;SDS011;4908;47.446;13.900;2023-08-30T09:57:25;0.20;;;0.20;;
9737;SDS011;4908;47.446;13.900;2023-08-30T09:59:53;0.30;;;0.30;;
9737;SDS011;4908;47.446;13.900;2023-08-30T10:02:23;0.20;;;0.20;;
9737;SDS011;4908;47.446;13.900;2023-08-30T10:04:50;0.30;;;0.30;;
9737;SDS011;4908;47.446;13.900;2023-08-30T10:07:18;0.47;;;0.37;;
9737;SDS011;4908;47.446;13.900;2023-08-30T10:09:46;0.20;;;0.20;;
9737;SDS011;4908;47.446;13.900;2023-08-30T10:12:15;0.20;;;0.20;;
9737;SDS011;4908;47.446;13.900;2023-08-30T10:14:43;0.20;;;0.20;;
9737;SDS011;4908;47.446;13.900;2023-08-30T10:17:10;0.20;;;0.20;;
9737;SDS011;4908;47.446;13.900;2023-08-30T10:19:40;0.23;;;0.20;;
9737;SDS011;4908;47.446;13.900;2023-08-30T10:22:10;0.63;;;0.63;;
9737;SDS011;4908;47.446;13.900;2023-08-30T10:24:41;0.30;;;0.30;;
9737;SDS011;4908;47.446;13.900;2023-08-30T10:27:10;0.40;;;0.40;;
9737;SDS011;4908;47.446;13.900;2023-08-30T10:29:39;0.80;;;0.40;;
9737;SDS011;4908;47.446;13.900;2023-08-30T10:32:08;0.50;;;0.50;;
9737;SDS011;4908;47.446;13.900;2023-08-30T10:34:36;0.50;;;0.50;;
9737;SDS011;4908;47.446;13.900;2023-08-30T10:37:06;0.53;;;0.50;;
9737;SDS011;4908;47.446;13.900;2023-08-30T10:39:35;1.60;;;0.50;;
9737;SDS011;4908;47.446;13.900;2023-08-30T10:42:12;0.30;;;0.30;;
9737;SDS011;4908;47.446;13.900;2023-08-30T10:44:47;0.33;;;0.33;;
9737;SDS011;4908;47.446;13.900;2023-08-30T10:47:18;0.40;;;0.40;;
9737;SDS011;4908;47.446;13.900;2023-08-30T10:49:48;0.47;;;0.47;;
9737;SDS011;4908;47.446;13.900;2023-08-30T10:52:17;0.40;;;0.40;;
9737;SDS011;4908;47.446;13.900;2023-08-30T10:54:44;0.50;;;0.50;;
9737;SDS011;4908;47.446;13.900;2023-08-30T10:57:15;1.50;;;0.70;;
9737;SDS011;4908;47.446;13.900;2023-08-30T11:00:05;0.70;;;0.70;;
9737;SDS011;4908;47.446;13.900;2023-08-30T11:02:34;0.73;;;0.60;;
9737;SDS011;4908;47.446;13.900;2023-08-30T11:05:02;0.80;;;0.80;;
9737;SDS011;4908;47.446;13.900;2023-08-30T11:07:33;0.70;;;0.70;;
9737;SDS011;4908;47.446;13.900;2023-08-30T11:10:01;0.67;;;0.67;;
9737;SDS011;4908;47.446;13.900;2023-08-30T11:12:31;0.70;;;0.70;;
9737;SDS011;4908;47.446;13.900;2023-08-30T11:14:58;0.70;;;0.70;;
9737;SDS011;4908;47.446;13.900;2023-08-30T11:17:26;0.90;;;0.90;;
9737;SDS011;4908;47.446;13.900;2023-08-30T11:19:57;0.50;;;0.50;;
9737;SDS011;4908;47.446;13.900;2023-08-30T11:22:24;0.70;;;0.70;;
9737;SDS011;4908;47.446;13.900;2023-08-30T11:24:53;0.90;;;0.90;;
9737;SDS011;4908;47.446;13.900;2023-08-30T11:27:21;0.60;;;0.60;;
9737;SDS011;4908;47.446;13.900;2023-08-30T11:29:48;0.70;;;0.70;;
9737;SDS011;4908;47.446;13.900;2023-08-30T11:32:16;0.80;;;0.80;;
9737;SDS011;4908;47.446;13.900;2023-08-30T11:34:43;2.87;;;0.90;;
9737;SDS011;4908;47.446;13.900;2023-08-30T11:37:10;0.90;;;0.90;;
9737;SDS011;4908;47.446;13.900;2023-08-30T11:39:38;0.93;;;0.70;;
9737;SDS011;4908;47.446;13.900;2023-08-30T11:42:07;1.00;;;1.00;;
9737;SDS011;4908;47.446;13.900;2023-08-30T11:44:34;0.90;;;0.90;;
9737;SDS011;4908;47.446;13.900;2023-08-30T11:47:03;0.80;;;0.80;;
9737;SDS011;4908;47.446;13.900;2023-08-30T11:49:30;1.23;;;1.13;;
9737;SDS011;4908;47.446;13.900;2023-08-30T11:51:59;1.33;;;1.20;;
9737;SDS011;4908;47.446;13.900;2023-08-30T11:54:26;0.90;;;0.90;;
9737;SDS011;4908;47.446;13.900;2023-08-30T11:56:54;1.57;;;1.10;;
9737;SDS011;4908;47.446;13.900;2023-08-30T11:59:22;1.67;;;0.87;;
9737;SDS011;4908;47.446;13.900;2023-08-30T12:01:51;1.23;;;1.17;;
9737;SDS011;4908;47.446;13.900;2023-08-30T12:04:19;1.17;;;1.10;;
9737;SDS011;4908;47.446;13.900;2023-08-30T12:06:51;1.13;;;0.73;;
9737;SDS011;4908;47.446;13.900;2023-08-30T12:09:19;0.83;;;0.83;;
9737;SDS011;4908;47.446;13.900;2023-08-30T12:11:47;0.90;;;0.90;;
9737;SDS011;4908;47.446;13.900;2023-08-30T12:14:14;1.27;;;1.10;;
9737;SDS011;4908;47.446;13.900;2023-08-30T12:16:43;1.17;;;0.90;;
9737;SDS011;4908;47.446;13.900;2023-08-30T12:19:12;1.60;;;0.90;;
9737;SDS011;4908;47.446;13.900;2023-08-30T12:21:42;1.10;;;1.10;;
9737;SDS011;4908;47.446;13.900;2023-08-30T12:24:10;0.90;;;0.90;;
9737;SDS011;4908;47.446;13.900;2023-08-30T12:26:37;0.80;;;0.80;;
9737;SDS011;4908;47.446;13.900;2023-08-30T12:29:04;1.33;;;1.10;;
9737;SDS011;4908;47.446;13.900;2023-08-30T12:31:32;1.17;;;0.90;;
9737;SDS011;4908;47.446;13.900;2023-08-30T12:34:01;1.70;;;1.00;;
9737;SDS011;4908;47.446;13.900;2023-08-30T12:36:28;0.97;;;0.80;;
9737;SDS011;4908;47.446;13.900;2023-08-30T12:38:57;2.63;;;1.00;;
9737;SDS011;4908;47.446;13.900;2023-08-30T12:41:24;1.43;;;1.30;;
9737;SDS011;4908;47.446;13.900;2023-08-30T12:43:51;1.10;;;1.00;;
9737;SDS011;4908;47.446;13.900;2023-08-30T12:46:19;1.00;;;1.00;;
9737;SDS011;4908;47.446;13.900;2023-08-30T12:48:46;1.37;;;0.90;;
9737;SDS011;4908;47.446;13.900;2023-08-30T12:51:15;4.03;;;1.10;;
9737;SDS011;4908;47.446;13.900;2023-08-30T12:53:42;2.77;;;1.03;;
9737;SDS011;4908;47.446;13.900;2023-08-30T12:56:09;1.00;;;1.00;;
9737;SDS011;4908;47.446;13.900;2023-08-30T12:58:36;3.07;;;1.00;;
9737;SDS011;4908;47.446;13.900;2023-08-30T13:01:03;0.90;;;0.90;;
9737;SDS011;4908;47.446;13.900;2023-08-30T13:03:30;1.20;;;1.20;;
9737;SDS011;4908;47.446;13.900;2023-08-30T13:05:58;0.87;;;0.87;;
9737;SDS011;4908;47.446;13.900;2023-08-30T13:08:26;0.80;;;0.80;;
9737;SDS011;4908;47.446;13.900;2023-08-30T13:10:53;1.57;;;0.90;;
9737;SDS011;4908;47.446;13.900;2023-08-30T13:13:21;1.17;;;0.80;;
9737;SDS011;4908;47.446;13.900;2023-08-30T13:15:48;1.00;;;1.00;;
9737;SDS011;4908;47.446;13.900;2023-08-30T13:18:15;2.53;;;1.00;;
9737;SDS011;4908;47.446;13.900;2023-08-30T13:20:42;1.43;;;0.80;;
9737;SDS011;4908;47.446;13.900;2023-08-30T13:23:10;0.90;;;0.90;;
9737;SDS011;4908;47.446;13.900;2023-08-30T13:25:42;0.90;;;0.90;;
9737;SDS011;4908;47.446;13.900;2023-08-30T13:28:09;2.50;;;1.20;;
9737;SDS011;4908;47.446;13.900;2023-08-30T13:30:36;1.83;;;1.10;;
9737;SDS011;4908;47.446;13.900;2023-08-30T13:33:10;0.93;;;0.93;;
9737;SDS011;4908;47.446;13.900;2023-08-30T13:35:38;1.73;;;0.90;;
9737;SDS011;4908;47.446;13.900;2023-08-30T13:38:05;0.97;;;0.97;;
9737;SDS011;4908;47.446;13.900;2023-08-30T13:40:32;0.90;;;0.90;;
9737;SDS011;4908;47.446;13.900;2023-08-30T13:43:01;0.80;;;0.80;;
9737;SDS011;4908;47.446;13.900;2023-08-30T13:45:28;0.80;;;0.80;;
9737;SDS011;4908;47.446;13.900;2023-08-30T13:47:55;0.77;;;0.77;;
9737;SDS011;4908;47.446;13.900;2023-08-30T13:50:23;1.13;;;1.03;;
9737;SDS011;4908;47.446;13.900;2023-08-30T13:52:52;0.90;;;0.90;;
9737;SDS011;4908;47.446;13.900;2023-08-30T13:55:19;1.00;;;1.00;;
9737;SDS011;4908;47.446;13.900;2023-08-30T13:57:46;0.90;;;0.90;;
9737;SDS011;4908;47.446;13.900;2023-08-30T14:00:15;0.97;;;0.97;;
9737;SDS011;4908;47.446;13.900;2023-08-30T14:02:43;1.10;;;1.10;;
9737;SDS011;4908;47.446;13.900;2023-08-30T14:05:10;0.90;;;0.90;;
9737;SDS011;4908;47.446;13.900;2023-08-30T14:07:37;0.93;;;0.93;;
9737;SDS011;4908;47.446;13.900;2023-08-30T14:10:05;0.87;;;0.87;;
9737;SDS011;4908;47.446;13.900;2023-08-30T14:12:33;1.00;;;1.00;;
9737;SDS011;4908;47.446;13.900;2023-08-30T14:15:00;0.87;;;0.87;;
9737;SDS011;4908;47.446;13.900;2023-08-30T14:17:29;2.43;;;0.80;;
9737;SDS011;4908;47.446;13.900;2023-08-30T14:19:56;1.23;;;1.13;;
9737;SDS011;4908;47.446;13.900;2023-08-30T14:22:23;1.20;;;1.20;;
9737;SDS011;4908;47.446;13.900;2023-08-30T14:24:50;1.53;;;1.10;;
9737;SDS011;4908;47.446;13.900;2023-08-30T14:27:17;2.20;;;2.10;;
9737;SDS011;4908;47.446;13.900;2023-08-30T14:29:45;1.50;;;1.40;;
9737;SDS011;4908;47.446;13.900;2023-08-30T14:32:12;1.33;;;1.33;;
9737;SDS011;4908;47.446;13.900;2023-08-30T14:34:41;1.30;;;1.20;;
9737;SDS011;4908;47.446;13.900;2023-08-30T14:37:08;1.80;;;1.10;;
9737;SDS011;4908;47.446;13.900;2023-08-30T14:39:36;1.00;;;1.00;;
9737;SDS011;4908;47.446;13.900;2023-08-30T14:42:03;1.37;;;1.27;;
9737;SDS011;4908;47.446;13.900;2023-08-30T14:44:31;1.00;;;1.00;;
9737;SDS011;4908;47.446;13.900;2023-08-30T14:46:58;1.10;;;1.10;;
9737;SDS011;4908;47.446;13.900;2023-08-30T14:49:25;0.90;;;0.90;;
9737;SDS011;4908;47.446;13.900;2023-08-30T14:51:54;2.27;;;1.10;;
9737;SDS011;4908;47.446;13.900;2023-08-30T14:54:21;1.60;;;1.13;;
9737;SDS011;4908;47.446;13.900;2023-08-30T14:56:48;1.00;;;1.00;;
9737;SDS011;4908;47.446;13.900;2023-08-30T14:59:15;0.90;;;0.90;;
9737;SDS011;4908;47.446;13.900;2023-08-30T15:01:43;0.70;;;0.70;;
9737;SDS011;4908;47.446;13.900;2023-08-30T15:04:10;1.00;;;1.00;;
9737;SDS011;4908;47.446;13.900;2023-08-30T15:06:37;1.50;;;1.27;;